Terminal Aerodrome Forecast
Issued by NWS Upton, NY

Home | Current Version | Previous Version | Text Only | Print | Product List | Glossary On
Versions: 1 2 3 4 5 6 7 8 9 10 11 12 13 14 15 16 17 18 19 20 21 22 23 24 25 26 27 28
000
FTUS41 KOKX 181727
TAFBDR
TAF
KBDR 181727Z 1818/1918 VRB03KT P6SM OVC011
     FM182000 VRB03KT P6SM OVC045
     FM190200 26007KT P6SM BKN045
     FM190900 28009KT P6SM SCT150
     FM191500 26013G20KT P6SM SCT030 SCT150=

USA.gov is the U.S. government's official web portal to all federal, state and local government web resources and services.